createdAt,value
2022-08-11T00:01:14.913Z,20.10
2022-08-11T00:03:46.800Z,20.10
2022-08-11T00:06:16.311Z,20.00
2022-08-11T00:08:50.774Z,20.00
2022-08-11T00:11:19.993Z,20.00
2022-08-11T00:13:51.358Z,19.90
2022-08-11T00:16:24.770Z,19.90
2022-08-11T00:18:56.179Z,19.90
2022-08-11T00:21:54.761Z,19.80
2022-08-11T00:24:15.722Z,19.80
2022-08-11T00:26:49.815Z,19.80
2022-08-11T00:29:18.921Z,19.70
2022-08-11T00:31:51.776Z,19.70
2022-08-11T00:34:23.814Z,19.70
2022-08-11T00:36:54.777Z,19.60
2022-08-11T00:39:27.266Z,19.60
2022-08-11T00:42:08.466Z,19.60
2022-08-11T00:44:53.105Z,19.50
2022-08-11T00:47:35.920Z,19.50
2022-08-11T00:50:14.736Z,19.50
2022-08-11T00:53:18.951Z,19.40
2022-08-11T00:56:19.051Z,19.40
2022-08-11T00:59:35.213Z,19.30
2022-08-11T01:02:30.643Z,19.30
2022-08-11T01:05:46.081Z,19.30
2022-08-11T01:08:50.127Z,19.20
2022-08-11T01:11:30.838Z,19.20
2022-08-11T01:14:43.876Z,19.20
2022-08-11T01:18:11.348Z,19.10
2022-08-11T01:21:19.897Z,19.10
2022-08-11T01:24:15.760Z,19.00
2022-08-11T01:27:18.894Z,19.00
2022-08-11T01:30:24.372Z,18.90
2022-08-11T01:33:27.110Z,18.90
2022-08-11T01:36:39.350Z,18.90
2022-08-11T01:39:38.540Z,18.80
2022-08-11T01:43:08.077Z,18.80
2022-08-11T01:45:43.043Z,18.70
2022-08-11T01:48:23.496Z,18.70
2022-08-11T01:51:04.446Z,18.70
2022-08-11T01:53:47.049Z,18.70
2022-08-11T01:56:29.080Z,18.60
2022-08-11T01:59:08.255Z,18.60
2022-08-11T02:01:58.327Z,18.50
2022-08-11T02:04:34.673Z,18.50
2022-08-11T02:07:14.688Z,18.50
2022-08-11T02:10:35.576Z,18.50
2022-08-11T02:13:15.555Z,18.40
2022-08-11T02:15:47.233Z,18.40
2022-08-11T02:18:22.872Z,18.30
2022-08-11T02:21:14.925Z,18.40
2022-08-11T02:24:05.205Z,18.30
2022-08-11T02:26:41.377Z,18.30
2022-08-11T02:29:18.024Z,18.20
2022-08-11T02:32:25.826Z,18.20
2022-08-11T02:35:05.175Z,18.20
2022-08-11T02:37:45.442Z,18.10
2022-08-11T02:40:23.929Z,18.10
2022-08-11T02:43:03.599Z,18.10
2022-08-11T02:45:40.839Z,18.00
2022-08-11T02:48:40.707Z,18.00
2022-08-11T02:51:21.178Z,18.00
2022-08-11T02:54:02.133Z,18.00
2022-08-11T02:56:44.629Z,18.00
2022-08-11T02:59:46.385Z,18.00
2022-08-11T03:02:27.845Z,18.00
2022-08-11T03:05:09.172Z,17.90
2022-08-11T03:07:49.385Z,17.90
2022-08-11T03:10:23.122Z,17.90
2022-08-11T03:13:15.803Z,17.90
2022-08-11T03:16:10.580Z,17.80
2022-08-11T03:18:46.438Z,17.80
2022-08-11T03:21:23.633Z,17.80
2022-08-11T03:24:01.549Z,17.70
2022-08-11T03:26:34.171Z,17.70
2022-08-11T03:29:09.138Z,17.70
2022-08-11T03:31:46.153Z,17.70
2022-08-11T03:34:17.867Z,17.60
2022-08-11T03:37:37.985Z,17.60
2022-08-11T03:40:17.268Z,17.60
2022-08-11T03:43:02.783Z,17.50
2022-08-11T03:45:41.141Z,17.50
2022-08-11T03:48:24.457Z,17.50
2022-08-11T03:51:02.382Z,17.50
2022-08-11T03:53:50.367Z,17.50
2022-08-11T03:57:09.604Z,17.40
2022-08-11T04:00:04.072Z,17.40
2022-08-11T04:03:21.485Z,17.40
2022-08-11T04:06:33.052Z,17.30
2022-08-11T04:09:48.255Z,17.30
2022-08-11T04:12:38.032Z,17.30
2022-08-11T04:15:43.634Z,17.30
2022-08-11T04:18:54.858Z,17.20
2022-08-11T04:21:52.440Z,17.20
2022-08-11T04:24:55.410Z,17.20
2022-08-11T04:27:46.093Z,17.20
2022-08-11T04:30:21.472Z,17.10
2022-08-11T04:33:18.163Z,17.20
2022-08-11T04:35:59.134Z,17.10
2022-08-11T04:39:00.242Z,17.10
2022-08-11T04:42:31.550Z,17.10
2022-08-11T04:45:39.377Z,17.10
2022-08-11T04:48:54.992Z,17.10
2022-08-11T04:51:59.334Z,17.10
2022-08-11T04:54:59.633Z,17.10
2022-08-11T04:57:59.715Z,17.10
2022-08-11T05:00:49.654Z,17.10
2022-08-11T05:03:45.290Z,17.10
2022-08-11T05:06:45.955Z,17.10
2022-08-11T05:09:29.591Z,17.10
2022-08-11T05:12:21.899Z,17.10
2022-08-11T05:15:09.927Z,17.10
2022-08-11T05:18:14.055Z,17.10
2022-08-11T05:21:07.603Z,17.20
2022-08-11T05:23:57.959Z,17.20
2022-08-11T05:26:49.232Z,17.20
2022-08-11T05:29:58.576Z,17.30
2022-08-11T05:32:50.355Z,17.30
2022-08-11T05:36:00.023Z,17.30
2022-08-11T05:38:35.216Z,17.30
2022-08-11T05:41:21.667Z,17.40
2022-08-11T05:44:19.983Z,17.40
2022-08-11T05:47:10.113Z,17.50
2022-08-11T05:49:58.117Z,17.50
2022-08-11T05:52:47.055Z,17.60
2022-08-11T05:55:35.529Z,17.70
2022-08-11T05:58:21.149Z,17.70
2022-08-11T06:00:49.601Z,17.90
2022-08-11T06:03:28.883Z,18.10
2022-08-11T06:05:59.214Z,18.30
2022-08-11T06:08:31.906Z,18.50
2022-08-11T06:11:06.201Z,18.80
2022-08-11T06:13:35.795Z,19.00
2022-08-11T06:16:07.001Z,19.30
2022-08-11T06:18:38.239Z,19.60
2022-08-11T06:21:12.200Z,20.00
2022-08-11T06:23:42.560Z,20.30
2022-08-11T06:26:11.604Z,20.60
2022-08-11T06:28:42.111Z,20.90
2022-08-11T06:31:14.471Z,21.20
2022-08-11T06:33:56.801Z,21.40
2022-08-11T06:36:34.261Z,21.80
2022-08-11T06:39:17.184Z,22.00
2022-08-11T06:41:50.475Z,22.30
2022-08-11T06:44:28.843Z,22.60
2022-08-11T06:47:05.443Z,22.80
2022-08-11T06:49:56.341Z,23.10
2022-08-11T06:52:35.706Z,23.30
2022-08-11T06:55:54.934Z,23.50
2022-08-11T06:58:14.214Z,23.80
2022-08-11T07:00:43.488Z,24.00
2022-08-11T07:03:13.859Z,24.30
2022-08-11T07:05:48.549Z,24.50
2022-08-11T07:08:55.573Z,24.60
2022-08-11T07:12:13.880Z,24.80
2022-08-11T07:15:08.799Z,25.00
2022-08-11T07:17:49.936Z,25.30
2022-08-11T07:20:37.013Z,25.40
2022-08-11T07:23:28.016Z,25.60
2022-08-11T07:26:17.998Z,25.80
2022-08-11T07:28:58.742Z,26.00
2022-08-11T07:31:42.546Z,26.10
2022-08-11T07:34:21.416Z,26.30
2022-08-11T07:36:55.302Z,26.40
2022-08-11T07:39:28.216Z,26.60
2022-08-11T07:41:58.998Z,26.70
2022-08-11T07:44:34.658Z,26.90
2022-08-11T07:47:21.323Z,26.90
2022-08-11T07:50:09.263Z,27.00
2022-08-11T07:52:40.552Z,27.10
2022-08-11T07:55:17.354Z,27.20
2022-08-11T07:58:19.308Z,27.30
2022-08-11T08:01:21.658Z,27.40
2022-08-11T08:04:09.524Z,27.50
2022-08-11T08:06:56.477Z,27.60
2022-08-11T08:09:43.355Z,27.70
2022-08-11T08:12:32.040Z,27.70
2022-08-11T08:15:17.957Z,27.80
2022-08-11T08:18:09.408Z,27.90
2022-08-11T08:20:45.840Z,27.90
2022-08-11T08:23:14.873Z,28.00
2022-08-11T08:25:45.867Z,28.10
2022-08-11T08:28:18.525Z,28.10
2022-08-11T08:30:50.890Z,28.20
2022-08-11T08:33:22.595Z,28.30
2022-08-11T08:36:11.583Z,28.30
2022-08-11T08:38:42.156Z,28.40
2022-08-11T08:41:13.431Z,28.40
2022-08-11T08:43:49.847Z,28.50
2022-08-11T08:46:20.740Z,28.60
2022-08-11T08:48:50.411Z,28.60
2022-08-11T08:52:01.541Z,28.70
2022-08-11T08:54:29.074Z,28.70
2022-08-11T08:56:58.322Z,28.80
2022-08-11T08:59:48.813Z,28.80
2022-08-11T09:02:19.687Z,28.90
2022-08-11T09:05:03.738Z,28.90
2022-08-11T09:07:39.671Z,28.90
2022-08-11T09:10:10.808Z,28.90
2022-08-11T09:12:42.307Z,29.00
2022-08-11T09:15:14.087Z,29.00
2022-08-11T09:17:46.020Z,29.10
2022-08-11T09:20:16.427Z,29.10
2022-08-11T09:24:02.121Z,29.20
2022-08-11T09:26:13.384Z,29.20
2022-08-11T09:28:44.106Z,29.20
2022-08-11T09:31:15.728Z,29.20
2022-08-11T09:33:45.627Z,29.20
2022-08-11T09:36:32.670Z,29.30
2022-08-11T09:39:19.654Z,29.20
2022-08-11T09:42:01.015Z,29.30
2022-08-11T09:44:52.990Z,29.30
2022-08-11T09:47:25.219Z,29.30
2022-08-11T09:49:59.793Z,29.40
2022-08-11T09:52:28.616Z,29.40
2022-08-11T09:54:57.297Z,29.40
2022-08-11T09:57:44.358Z,29.40
2022-08-11T10:00:15.155Z,29.40
2022-08-11T10:02:49.440Z,29.50
2022-08-11T10:05:38.256Z,29.50
2022-08-11T10:08:08.354Z,29.50
2022-08-11T10:10:39.006Z,29.50
2022-08-11T10:14:10.038Z,29.40
2022-08-11T10:16:16.372Z,29.50
2022-08-11T10:18:52.586Z,29.50
2022-08-11T10:21:29.209Z,29.50
2022-08-11T10:24:18.296Z,29.50
2022-08-11T10:26:54.235Z,29.50
2022-08-11T10:29:45.218Z,29.50
2022-08-11T10:32:52.280Z,29.70
2022-08-11T10:35:30.709Z,29.70
2022-08-11T10:38:07.674Z,29.80
2022-08-11T10:40:39.984Z,29.70
2022-08-11T10:43:13.607Z,29.80
2022-08-11T10:46:03.174Z,29.70
2022-08-11T10:48:37.851Z,29.80
2022-08-11T10:51:14.777Z,29.70
2022-08-11T10:54:03.896Z,29.80
2022-08-11T10:56:53.533Z,29.80
2022-08-11T10:59:23.298Z,29.80
2022-08-11T11:01:54.599Z,29.80
2022-08-11T11:04:28.629Z,29.80
2022-08-11T11:07:05.850Z,29.80
2022-08-11T11:09:40.827Z,29.80
2022-08-11T11:12:31.945Z,29.80
2022-08-11T11:15:18.635Z,29.80
2022-08-11T11:17:57.653Z,29.80
2022-08-11T11:20:35.946Z,29.80
2022-08-11T11:23:16.777Z,29.80
2022-08-11T11:26:14.826Z,29.70
2022-08-11T11:29:16.197Z,29.80
2022-08-11T11:32:00.406Z,29.70
2022-08-11T11:34:58.324Z,29.80
2022-08-11T11:37:27.517Z,29.80
2022-08-11T11:39:59.052Z,29.70
2022-08-11T11:42:27.858Z,29.80
2022-08-11T11:44:58.531Z,29.80
2022-08-11T11:47:28.814Z,29.80
2022-08-11T11:49:57.221Z,29.80
2022-08-11T11:52:27.142Z,29.80
2022-08-11T11:54:58.317Z,29.80
2022-08-11T11:57:58.762Z,29.80
2022-08-11T12:00:47.817Z,29.80
2022-08-11T12:03:16.359Z,29.80
2022-08-11T12:05:45.846Z,29.90
2022-08-11T12:08:16.164Z,29.90
2022-08-11T12:11:11.397Z,29.90
2022-08-11T12:13:43.254Z,29.90
2022-08-11T12:16:35.801Z,29.90
2022-08-11T12:19:02.560Z,29.90
2022-08-11T12:21:32.290Z,29.90
2022-08-11T12:24:20.673Z,29.90
2022-08-11T12:27:16.583Z,29.90
2022-08-11T12:29:52.771Z,29.90
2022-08-11T12:32:26.636Z,29.90
2022-08-11T12:34:57.957Z,30.00
2022-08-11T12:37:31.367Z,30.00
2022-08-11T12:40:43.373Z,30.00
2022-08-11T12:43:38.280Z,30.00
2022-08-11T12:46:10.011Z,30.00
2022-08-11T12:49:03.440Z,30.00
2022-08-11T12:52:13.228Z,29.90
2022-08-11T12:54:57.342Z,29.90
2022-08-11T12:57:47.573Z,30.00
2022-08-11T13:00:36.112Z,30.00
2022-08-11T13:03:24.393Z,30.10
2022-08-11T13:05:55.359Z,30.10
2022-08-11T13:08:25.908Z,30.10
2022-08-11T13:11:12.986Z,30.20
2022-08-11T13:13:52.885Z,30.30
2022-08-11T13:16:29.009Z,30.30
2022-08-11T13:18:58.813Z,30.30
2022-08-11T13:21:29.041Z,30.30
2022-08-11T13:24:01.065Z,30.30
2022-08-11T13:26:46.759Z,30.30
2022-08-11T13:29:20.069Z,30.30
2022-08-11T13:31:50.816Z,30.30
2022-08-11T13:34:21.127Z,30.30
2022-08-11T13:36:51.980Z,30.40
2022-08-11T13:39:22.901Z,30.40
2022-08-11T13:41:55.097Z,30.40
2022-08-11T13:44:26.022Z,30.40
2022-08-11T13:46:59.210Z,30.40
2022-08-11T13:49:28.771Z,30.40
2022-08-11T13:51:59.690Z,30.30
2022-08-11T13:54:31.314Z,30.30
2022-08-11T13:57:08.184Z,30.30
2022-08-11T13:59:52.321Z,30.20
2022-08-11T14:02:30.463Z,30.30
2022-08-11T14:05:04.154Z,30.30
2022-08-11T14:07:39.049Z,30.40
2022-08-11T14:10:10.278Z,30.30
2022-08-11T14:12:57.215Z,30.30
2022-08-11T14:15:28.801Z,30.40
2022-08-11T14:18:07.418Z,30.40
2022-08-11T14:20:56.311Z,30.40
2022-08-11T14:23:29.149Z,30.30
2022-08-11T14:26:16.053Z,30.30
2022-08-11T14:28:45.456Z,30.40
2022-08-11T14:31:15.627Z,30.40
2022-08-11T14:33:58.294Z,30.50
2022-08-11T14:36:29.705Z,30.50
2022-08-11T14:38:58.228Z,30.50
2022-08-11T14:42:09.805Z,30.50
2022-08-11T14:44:53.991Z,30.60
2022-08-11T14:47:25.421Z,30.50
2022-08-11T14:50:09.732Z,30.50
2022-08-11T14:52:45.842Z,30.50
2022-08-11T14:55:32.380Z,30.60
2022-08-11T14:58:01.755Z,30.60
2022-08-11T15:00:30.711Z,30.60
2022-08-11T15:03:11.890Z,30.60
2022-08-11T15:05:56.218Z,30.60
2022-08-11T15:08:42.379Z,30.60
2022-08-11T15:11:32.308Z,30.70
2022-08-11T15:14:03.101Z,30.70
2022-08-11T15:16:48.696Z,30.70
2022-08-11T15:19:19.573Z,30.70
2022-08-11T15:22:07.034Z,30.70
2022-08-11T15:24:36.416Z,30.60
2022-08-11T15:27:24.367Z,30.60
2022-08-11T15:30:26.855Z,30.60
2022-08-11T15:33:19.164Z,30.70
2022-08-11T15:36:04.936Z,30.70
2022-08-11T15:38:37.276Z,30.70
2022-08-11T15:41:30.919Z,30.70
2022-08-11T15:44:17.111Z,30.70
2022-08-11T15:46:50.151Z,30.70
2022-08-11T15:50:10.953Z,30.70
2022-08-11T15:52:23.621Z,30.70
2022-08-11T15:54:53.697Z,30.70
2022-08-11T15:57:40.663Z,30.70
2022-08-11T16:00:27.729Z,30.70
2022-08-11T16:03:16.205Z,30.70
2022-08-11T16:05:52.198Z,30.70
2022-08-11T16:08:26.777Z,30.70
2022-08-11T16:11:06.376Z,30.70
2022-08-11T16:13:57.286Z,30.70
2022-08-11T16:16:26.555Z,30.70
2022-08-11T16:18:56.768Z,30.70
2022-08-11T16:21:35.160Z,30.80
2022-08-11T16:24:07.557Z,30.80
2022-08-11T16:27:09.237Z,30.90
2022-08-11T16:29:31.726Z,30.90
2022-08-11T16:32:18.277Z,30.90
2022-08-11T16:35:07.985Z,30.90
2022-08-11T16:37:55.001Z,30.90
2022-08-11T16:40:24.023Z,31.00
2022-08-11T16:43:12.488Z,31.00
2022-08-11T16:45:59.927Z,31.10
2022-08-11T16:48:36.415Z,31.10
2022-08-11T16:51:07.834Z,31.10
2022-08-11T16:53:38.337Z,31.20
2022-08-11T16:56:33.304Z,31.20
2022-08-11T16:59:17.657Z,31.20
2022-08-11T17:01:53.076Z,31.30
2022-08-11T17:04:47.223Z,31.30
2022-08-11T17:07:42.055Z,31.40
2022-08-11T17:10:50.742Z,31.50
2022-08-11T17:13:25.007Z,31.70
2022-08-11T17:16:12.519Z,31.90
2022-08-11T17:18:49.302Z,32.10
2022-08-11T17:21:21.146Z,32.60
2022-08-11T17:23:51.865Z,33.10
2022-08-11T17:26:23.922Z,33.60
2022-08-11T17:28:57.903Z,34.20
2022-08-11T17:31:47.120Z,34.60
2022-08-11T17:34:33.992Z,35.20
2022-08-11T17:37:04.108Z,36.00
2022-08-11T17:39:33.723Z,36.90
2022-08-11T17:42:20.412Z,37.60
2022-08-11T17:45:07.829Z,38.30
2022-08-11T17:47:55.540Z,39.10
2022-08-11T17:50:23.977Z,39.80
2022-08-11T17:53:11.094Z,40.40
2022-08-11T17:55:58.526Z,40.80
2022-08-11T17:58:45.442Z,41.20
2022-08-11T18:01:15.057Z,41.30
2022-08-11T18:03:56.232Z,41.30
2022-08-11T18:06:33.773Z,40.80
2022-08-11T18:09:22.776Z,39.60
2022-08-11T18:12:12.729Z,38.20
2022-08-11T18:15:00.743Z,36.90
2022-08-11T18:17:47.451Z,35.80
2022-08-11T18:20:35.026Z,34.90
2022-08-11T18:23:45.611Z,34.20
2022-08-11T18:26:31.295Z,33.60
2022-08-11T18:29:19.021Z,33.00
2022-08-11T18:32:08.314Z,32.50
2022-08-11T18:34:59.370Z,32.10
2022-08-11T18:37:50.877Z,31.80
2022-08-11T18:40:39.232Z,31.40
2022-08-11T18:43:28.193Z,31.10
2022-08-11T18:46:19.534Z,30.80
2022-08-11T18:49:14.513Z,30.60
2022-08-11T18:52:06.457Z,30.30
2022-08-11T18:54:56.955Z,30.10
2022-08-11T18:57:50.007Z,29.90
2022-08-11T19:00:41.412Z,29.70
2022-08-11T19:03:28.481Z,29.40
2022-08-11T19:06:39.378Z,29.30
2022-08-11T19:09:27.163Z,29.00
2022-08-11T19:12:15.275Z,28.80
2022-08-11T19:15:02.139Z,28.60
2022-08-11T19:17:50.045Z,28.50
2022-08-11T19:20:38.892Z,28.30
2022-08-11T19:23:26.535Z,28.20
2022-08-11T19:26:12.486Z,28.00
2022-08-11T19:29:02.929Z,27.90
2022-08-11T19:31:49.725Z,27.80
2022-08-11T19:34:38.237Z,27.60
2022-08-11T19:37:25.970Z,27.60
2022-08-11T19:40:12.821Z,27.40
2022-08-11T19:43:00.648Z,27.30
2022-08-11T19:45:52.525Z,27.20
2022-08-11T19:48:40.182Z,27.00
2022-08-11T19:51:27.489Z,26.80
2022-08-11T19:54:13.810Z,26.70
2022-08-11T19:57:01.633Z,26.80
2022-08-11T19:59:48.447Z,26.60
2022-08-11T20:02:36.072Z,26.50
2022-08-11T20:05:21.918Z,26.30
2022-08-11T20:08:08.678Z,26.20
2022-08-11T20:10:55.652Z,26.10
2022-08-11T20:13:43.600Z,26.00
2022-08-11T20:16:31.054Z,25.80
2022-08-11T20:19:19.813Z,25.70
2022-08-11T20:22:13.355Z,25.60
2022-08-11T20:25:00.319Z,25.50
2022-08-11T20:27:46.000Z,25.40
2022-08-11T20:30:32.424Z,25.30
2022-08-11T20:33:19.372Z,25.30
2022-08-11T20:36:08.312Z,25.20
2022-08-11T20:38:55.353Z,25.10
2022-08-11T20:41:58.274Z,25.00
2022-08-11T20:44:46.615Z,24.90
2022-08-11T20:47:33.928Z,24.90
2022-08-11T20:50:40.949Z,24.70
2022-08-11T20:53:30.630Z,24.70
2022-08-11T20:56:28.785Z,24.60
2022-08-11T20:59:19.047Z,24.50
2022-08-11T21:02:09.818Z,24.50
2022-08-11T21:04:57.236Z,24.30
2022-08-11T21:07:55.178Z,24.30
2022-08-11T21:10:46.997Z,24.20
2022-08-11T21:13:36.971Z,24.20
2022-08-11T21:16:26.138Z,24.10
2022-08-11T21:19:18.616Z,24.00
2022-08-11T21:22:06.074Z,24.00
2022-08-11T21:24:52.898Z,23.90
2022-08-11T21:27:42.273Z,23.80
2022-08-11T21:30:28.634Z,23.80
2022-08-11T21:33:13.957Z,23.70
2022-08-11T21:36:01.151Z,23.60
2022-08-11T21:38:47.487Z,23.60
2022-08-11T21:41:34.404Z,23.50
2022-08-11T21:44:24.736Z,23.40
2022-08-11T21:47:12.617Z,23.40
2022-08-11T21:49:59.145Z,23.30
2022-08-11T21:52:45.371Z,23.30
2022-08-11T21:55:32.304Z,23.20
2022-08-11T21:58:19.772Z,23.20
2022-08-11T22:01:07.680Z,23.10
2022-08-11T22:03:53.665Z,23.10
2022-08-11T22:06:40.663Z,23.00
2022-08-11T22:09:26.830Z,23.00
2022-08-11T22:12:33.272Z,22.90
2022-08-11T22:15:18.603Z,22.90
2022-08-11T22:18:05.165Z,22.80
2022-08-11T22:20:51.656Z,22.80
2022-08-11T22:23:38.401Z,22.70
2022-08-11T22:26:25.397Z,22.70
2022-08-11T22:29:11.309Z,22.60
2022-08-11T22:31:59.136Z,22.60
2022-08-11T22:34:53.028Z,22.50
2022-08-11T22:37:40.183Z,22.50
2022-08-11T22:40:27.797Z,22.40
2022-08-11T22:43:13.753Z,22.40
2022-08-11T22:45:59.463Z,22.40
2022-08-11T22:48:47.819Z,22.30
2022-08-11T22:51:38.363Z,22.30
2022-08-11T22:54:25.851Z,22.30
2022-08-11T22:57:12.277Z,22.20
2022-08-11T22:59:58.776Z,22.20
2022-08-11T23:02:47.005Z,22.10
2022-08-11T23:05:33.937Z,22.10
2022-08-11T23:08:21.001Z,22.00
2022-08-11T23:11:07.465Z,22.00
2022-08-11T23:13:53.613Z,21.90
2022-08-11T23:16:39.506Z,21.90
2022-08-11T23:20:08.607Z,21.80
2022-08-11T23:22:33.757Z,21.80
2022-08-11T23:25:37.219Z,21.70
2022-08-11T23:28:24.471Z,21.70
2022-08-11T23:31:15.181Z,21.60
2022-08-11T23:34:03.682Z,21.60
2022-08-11T23:36:49.376Z,21.50
2022-08-11T23:39:36.147Z,21.50
2022-08-11T23:42:24.159Z,21.40
2022-08-11T23:45:10.189Z,21.40
2022-08-11T23:47:57.469Z,21.30
2022-08-11T23:50:43.249Z,21.30
2022-08-11T23:53:29.108Z,21.20
2022-08-11T23:56:14.828Z,21.20
2022-08-11T23:59:01.990Z,21.10
